Weather observations for the past three days for
Hilton Head Island, Hilton Head Airport
Imperial (Metric)
Date Time (edt) Wind (mph) Vis. (mi.) Weather Sky Cond. Temperature (ºF) Relative Humidity Wind Chill (°F) Heat Index (°F) Pressure Precipitation (in)
Air Dwpt 6 hour altimeter (in) sea level (mb) 1 hr 3 hr 6 hr
Max. Min.
31 01:35 Calm 10.00 A Few Clouds FEW018 80.6 75.2 84% 86 30.09 0.0
31 01:15 Calm 10.00 A Few Clouds FEW019 80.6 75.2 84% 86 30.09 0.0
31 00:55 E 3 10.00 A Few Clouds FEW018 80.6 75.2 84% 86 30.09 0.0
31 00:35 Calm 10.00 Partly Cloudy SCT016 80.6 77 89% 87 30.1 0.0
31 00:15 Vrbl 3 10.00 Partly Cloudy SCT016 80.6 77 89% 87 30.1 0.0
30 23:55 Vrbl 5 10.00 Fair CLR 80.6 75.2 84% 86 30.1 0.0
30 23:35 Calm 10.00 Fair CLR 80.6 75.2 84% 86 30.11 0.0
30 23:15 Calm 10.00 Fair CLR 80.6 75.2 84% 86 30.11 0.0
30 22:55 Calm 10.00 Fair CLR 78.8 77 94% 83 30.11 0.0
30 22:35 Calm 10.00 A Few Clouds FEW017 80.6 75.2 84% 86 30.12 0.0
30 22:15 Vrbl 5 10.00 A Few Clouds FEW016 80.6 75.2 84% 86 30.12 0.0
30 21:55 Vrbl 5 10.00 A Few Clouds FEW017 80.6 75.2 84% 86 30.12 0.0
30 21:35 E 6 10.00 Partly Cloudy SCT017 SCT022 80.6 75.2 84% 86 30.12 0.0
30 21:15 Calm 10.00 Partly Cloudy SCT017 SCT022 80.6 75.2 84% 86 30.11 0.0
30 20:50 Calm 10.00 Partly Cloudy SCT018 80.6 75.2 84% 86 30.11 0.0
30 19:50 Calm 10.00 Fair CLR 80.6 75.2 84% 86 30.09 0.0
30 18:51 Calm 10.00 Partly Cloudy SCT080 82.4 75.2 79% 89 30.09 0.0
30 17:51 E 6 10.00 Partly Cloudy SCT020 84.2 75.2 74% 92 30.1 0.0
30 16:50 E 7 10.00 Partly Cloudy SCT018 SCT044 84.2 75.2 74% 92 30.1 0.0
30 15:50 NE 5 10.00 Mostly Cloudy BKN015 82.4 77 84% 91 30.12 0.0
30 14:51 NE 8 10.00 Mostly Cloudy SCT019 BKN026 84.2 77 79% 94 30.13 0.0
30 13:51 NE 7 10.00 Partly Cloudy SCT019 SCT026 82.4 77 84% 91 30.14 0.0
30 12:50 NE 8 10.00 Fair CLR 80.6 75.2 84% 86 30.14 0.0
30 11:50 NE 3 6.00 Light Rain Fog/Mist FEW005 FEW042 FEW048 75.2 75.2 100% 73 30.19 0.0
30 11:42 SE 12 0.50 Heavy Rain Fog SCT006 BKN014 OVC032 77 77 100% 78 30.19 0.0
30 09:51 Calm 8.00 Thunderstorm in Vicinity Rain FEW055 SCT060 OVC070 78.8 78.8 100% 83 30.17 0.0
30 08:54 E 7 9.00 Thunderstorm in Vicinity Rain FEW032 FEW043 BKN070 78.8 78.8 100% 83 30.15 0.0
30 07:51 NE 12 10.00 Fair CLR 78.8 77 94% 83 30.13 0.0
30 07:25 E 7 9.00 Thunderstorm in Vicinity Rain FEW032 FEW043 BKN070 78.8 78.8 100% 83 30.15 0.0
30 06:55 NE 8 10.00 Fair CLR 78.8 77 94% 83 30.12 0.0
30 06:35 NE 7 10.00 Partly Cloudy SCT110 78.8 77 94% 83 30.11 0.0
30 06:15 Vrbl 6 10.00 Mostly Cloudy FEW030 BKN110 78.8 77 94% 83 30.12 0.0
30 05:55 NE 6 10.00 Partly Cloudy FEW005 SCT016 SCT110 78.8 77 94% 83 30.11 0.0
30 05:35 NE 6 G 13 10.00 Mostly Cloudy SCT005 SCT021 BKN032 78.8 77 94% 83 30.1 0.0
30 05:15 NE 12 10.00 Mostly Cloudy SCT018 SCT023 BKN033 80.6 77 89% 87 30.09 0.0
30 04:55 NE 6 10.00 Mostly Cloudy BKN017 BKN021 BKN026 80.6 77 89% 87 30.09 0.0
30 04:35 NE 5 10.00 Mostly Cloudy SCT017 SCT023 BKN027 80.6 77 89% 87 30.1 0.0
30 04:15 Calm 10.00 Mostly Cloudy SCT018 BKN023 80.6 77 89% 87 30.1 0.0
30 03:55 Calm 10.00 Partly Cloudy SCT020 80.6 77 89% 87 30.1 0.0
30 03:15 Calm 10.00 Mostly Cloudy SCT020 BKN027 77 77 100% 78 30.1 0.0
30 02:55 Calm 10.00 Partly Cloudy SCT019 78.8 77 94% 83 30.11 0.0
30 02:35 Calm 10.00 A Few Clouds FEW019 78.8 77 94% 83 30.11 0.0
30 02:15 Calm 10.00 A Few Clouds FEW018 78.8 77 94% 83 30.11 0.0
30 01:55 Calm 10.00 A Few Clouds FEW018 78.8 77 94% 83 30.12 0.0
30 01:35 Calm 10.00 Partly Cloudy SCT017 77 77 100% 78 30.14 0.0
30 01:15 Calm 10.00 Partly Cloudy SCT018 77 75.2 94% 78 30.14 0.0
30 00:55 Calm 10.00 A Few Clouds FEW019 77 75.2 94% 78 30.14 0.0
30 00:35 Calm 10.00 A Few Clouds FEW019 77 75.2 94% 78 30.14 0.0
30 00:15 Calm 10.00 Fair CLR 78.8 75.2 89% 82 30.14 0.0
29 23:55 Calm 10.00 Thunderstorm in Vicinity FEW019 80.6 75.2 84% 86 30.14 0.0
29 23:35 Calm 10.00 Fair CLR 80.6 75.2 84% 86 30.15 0.0
29 23:15 Calm 10.00 Mostly Cloudy SCT019 BKN024 80.6 75.2 84% 86 30.15 0.0
29 22:55 Calm 10.00 Partly Cloudy SCT019 80.6 75.2 84% 86 30.16 0.0
29 22:35 E 3 10.00 Partly Cloudy SCT020 SCT028 SCT034 80.6 75.2 84% 86 30.17 0.0
29 22:15 Vrbl 3 10.00 Partly Cloudy SCT022 SCT029 SCT034 80.6 75.2 84% 86 30.17 0.0
29 21:55 Calm 10.00 Partly Cloudy SCT021 80.6 75.2 84% 86 30.17 0.0
29 21:35 Calm 10.00 Partly Cloudy SCT022 78.8 73.4 84% 82 30.16 0.0
29 21:15 Calm 10.00 Fair CLR 78.8 73.4 84% 82 30.14 0.0
29 20:50 Calm 10.00 Fair CLR 78.8 73.4 84% 82 30.13 0.0
29 19:50 Calm 10.00 Mostly Cloudy FEW019 SCT023 BKN041 80.6 75.2 84% 86 30.11 0.0
29 18:52 Calm 10.00 A Few Clouds FEW018 80.6 75.2 84% 86 30.11 0.0
29 17:50 Calm 10.00 Partly Cloudy SCT018 82.4 75.2 79% 89 30.11 0.0
29 16:50 Calm 10.00 Partly Cloudy SCT017 82.4 75.2 79% 89 30.11 0.0
29 15:51 Calm 10.00 Partly Cloudy SCT022 84.2 75.2 74% 92 30.12 0.0
29 14:51 Calm 10.00 Partly Cloudy SCT020 SCT037 84.2 75.2 74% 92 30.13 0.0
29 13:50 Calm 10.00 Mostly Cloudy BKN020 84.2 75.2 74% 92 30.13 0.0
29 12:53 S 7 G 12 10.00 Mostly Cloudy FEW017 BKN020 BKN032 80.6 77 89% 87 30.15 0.0
29 11:50 Calm 10.00 Mostly Cloudy SCT015 BKN020 BKN032 80.6 77 89% 87 30.16 0.0
29 10:51 Calm 10.00 A Few Clouds FEW013 78.8 77 94% 83 30.16 0.0
29 08:50 Calm 9.00 Thunderstorm in Vicinity Drizzle BKN028 BKN075 BKN100 78.8 77 94% 83 30.13 0.0
29 07:50 Calm 10.00 Mostly Cloudy BKN029 BKN034 77 75.2 94% 78 30.13 0.0
29 06:56 NE 6 7.00 Light Rain OVC018 77 77 100% 78 30.11 0.0
29 06:35 NE 7 10.00 Mostly Cloudy SCT017 BKN080 77 77 100% 78 30.1 0.0
29 06:15 NE 7 10.00 Fair CLR 77 77 100% 78 30.11 0.0
29 05:55 NE 7 10.00 Fair CLR 77 77 100% 78 30.1 0.0
29 05:35 Calm 10.00 Fair CLR 77 77 100% 78 30.1 0.0
29 05:15 NE 5 10.00 Fair CLR 77 75.2 94% 78 30.09 0.0
29 04:55 NE 5 10.00 Fair CLR 75.2 75.2 100% 73 30.09 0.0
29 04:35 Calm 10.00 Thunderstorm in Vicinity CLR 75.2 75.2 100% 73 30.08 0.0
29 04:15 Calm 10.00 Fair CLR 75.2 75.2 100% 73 30.07 0.0
29 03:55 Calm 8.00 Thunderstorm in Vicinity FEW070 75.2 75.2 100% 73 30.06 0.0
29 03:35 Calm 9.00 Thunderstorm in Vicinity SCT070 75.2 75.2 100% 73 30.07 0.0
29 03:15 Calm 7.00 Thunderstorm in Vicinity FEW040 FEW045 SCT050 75.2 75.2 100% 73 30.07 0.0
29 02:55 Calm 8.00 Thunderstorm FEW040 BKN048 77 77 100% 78 30.08 0.0 0.08
29 02:35 NE 5 10.00 Overcast FEW041 BKN050 OVC060 77 77 100% 78 30.07 0.0
29 02:15 Calm 10.00 Light Rain FEW017 SCT026 BKN041 77 77 100% 78 30.07 0.0
29 01:55 Calm 1.25 Heavy Rain Fog/Mist SCT016 BKN024 OVC029 77 77 100% 78 30.07 0.0 0.39
29 01:35 NE 10 1.50 Heavy Rain Fog/Mist OVC015 77 77 100% 78 30.08 0.0
29 01:15 N 5 10.00 Overcast OVC018 77 77 100% 78 30.08 0.0
29 00:55 Calm 10.00 Mostly Cloudy SCT019 BKN055 77 77 100% 78 30.08 0.0
29 00:35 Calm 8.00 Light Rain FEW022 FEW027 FEW034 75.2 75.2 100% 73 30.08 0.0
29 00:15 NE 5 9.00 Mostly Cloudy SCT018 BKN025 BKN034 75.2 75.2 100% 73 30.08 0.0
28 23:55 Calm 9.00 Overcast OVC019 75.2 75.2 100% 73 30.09 0.0
28 23:35 Calm 10.00 Partly Cloudy SCT020 75.2 75.2 100% 73 30.08 0.0
28 23:15 Calm 8.00 Fair CLR 75.2 75.2 100% 73 30.08 0.0
28 22:55 Calm 9.00 A Few Clouds FEW028 75.2 75.2 100% 73 30.07 0.0
28 22:35 Calm 10.00 A Few Clouds FEW028 75.2 75.2 100% 73 30.07 0.0
28 22:15 Calm 10.00 Fair CLR 75.2 75.2 100% 73 30.07 0.0
28 21:55 Calm 9.00 Fair CLR 75.2 75.2 100% 73 30.06 0.0
28 21:35 Calm 10.00 Fair CLR 75.2 75.2 100% 73 30.06 0.0
28 21:15 Calm 10.00 Fair CLR 75.2 75.2 100% 73 30.05 0.0
28 19:50 Calm 9.00 Fair CLR 75.2 75.2 100% 73 30.03 0.0
28 18:50 Calm 10.00 Rain CLR 75.2 73.4 94% 74 30.03 0.0
28 17:50 S 5 9.00 Thunderstorm in Vicinity Rain CLR 75.2 73.4 94% 74 30.05 0.0
28 16:50 S 5 6.00 Rain Fog/Mist FEW038 FEW048 SCT060 75.2 75.2 100% 73 30.06 0.0
28 15:50 Calm 6.00 Light Rain FEW032 SCT039 BKN047 75.2 73.4 94% 74 30.06 0.0
28 14:57 Calm 7.00 Light Rain CLR 75.2 75.2 100% 73 30.07 0.0
28 12:51 N 8 1.50 Thunderstorm Fog/Mist SCT015 BKN021 78.8 77 94% 83 30.07 0.0
28 11:50 SW 5 10.00 Mostly Cloudy BKN021 BKN029 BKN037 84.2 77 79% 94 30.07 0.0
28 10:50 Calm 10.00 Partly Cloudy FEW017 SCT037 SCT045 78.8 77 94% 83 30.07 0.0
28 09:50 Calm 10.00 Fair CLR 80.6 77 89% 87 30.06 0.0
28 08:50 Calm 10.00 Fair CLR 78.8 77 94% 83 30.05 0.0
28 07:50 Calm 10.00 Fair CLR 75.2 75.2 100% 73 30.04 0.0
28 06:50 SW 3 10.00 A Few Clouds FEW080 75.2 75.2 100% 73 30.03 0.0
28 06:35 Calm 10.00 Fair CLR 75.2 75.2 100% 73 30.03 0.0
28 06:15 W 6 10.00 Partly Cloudy FEW035 SCT085 75.2 75.2 100% 73 30.02 0.0
28 05:55 W 3 10.00 Mostly Cloudy FEW032 SCT043 BKN085 75.2 75.2 100% 73 30.02 0.0
28 05:35 W 3 10.00 Mostly Cloudy BKN043 75.2 75.2 100% 73 30.02 0.0
28 05:15 Calm 10.00 Fair CLR 75.2 75.2 100% 73 30.01 0.0
28 04:55 W 3 10.00 Fair CLR 75.2 75.2 100% 73 30.01 0.0
28 04:35 W 5 10.00 A Few Clouds FEW090 75.2 75.2 100% 73 30 0.0
28 04:15 Calm 10.00 Fair CLR 75.2 75.2 100% 73 30 0.0
28 03:55 Calm 9.00 Fair CLR 75.2 75.2 100% 73 30 0.0
28 03:35 Calm 8.00 Fair CLR 75.2 75.2 100% 73 29.99 0.0
28 03:15 Calm 10.00 Fair CLR 75.2 75.2 100% 73 29.99 0.0
28 02:55 Calm 10.00 Fair CLR 75.2 75.2 100% 73 29.99 0.0
28 02:35 Calm 10.00 Fair CLR 75.2 75.2 100% 73 29.99 0.0
28 02:15 Calm 10.00 Fair CLR 75.2 75.2 100% 73 29.99 0.0
28 01:55 Calm 10.00 Fair CLR 75.2 75.2 100% 73 29.98 0.0
Date Time (edt) Wind (mph) Vis. (mi.) Weather Sky Cond. Air Dwpt Max. Min. Relative Humidity Wind Chill (°F) Heat Index (°F) altimeter (in) sea level (mb) 1 hr 3 hr 6 hr
6 hour
Temperature (ºF) Pressure Precipitation (in)